CPLO2: Copan Lake

Data processed at Sat Feb 23 2019 23:32


All information presented herein is the property of the government of the United States of America and may be revised or deleted at any time without prior notice.
Dissemination of this information without the expressed written consent of the Public Affairs Office, Tulsa District U.S. Army Corps of Engineers is strictly prohibited.
These data are gathered electronically and, as presented, have not undergone any form of quality control. These data are not guaranteed to be valid or correct.
Go to home page.
Go to station list.
Go to home page.

Upstream stations:

Downstream station:
Previous Day
Next Day
Current Day
    
SHEF ID:       CPLO2     Copan Lake
STATION TYPE:  RESERVOIR
Flood Pool:  Bottom =   710.00, Top =   732.00

               PRECIP ELEVATION   STORAGE    INFLOW   RELEASE  AIR-TEMP  WIND-DIRWIND-SPEED REL-HUMID SOLAR-RAD   VOLTAGE  BAT-LOAD
                   in        ft     ac-ft       cfs       cfs         F       deg       mph         %      W/m2      volt      volt
              Ccp-Rev   Ccp-Rev   Ccp-Rev  Rev-Regi  Rev-Regi   Ccp-Rev   Ccp-Rev   Ccp-Rev   Ccp-Rev   Ccp-Rev   Ccp-Rev   Ccp-Rev
(US/Central)
02/23 00:00      0.00    710.32     36103       318        98     43.92    105.20      3.23     99.99      0.00     12.78     12.65
02/23 01:00      0.02    710.33     36149       172        98     43.21    248.90      1.00     99.99      0.00     12.78     12.57
02/23 02:00      0.00    710.33     36149       167        98     43.48     82.52      1.79     99.99      0.00     12.77     12.57
02/23 03:00      0.00    710.34     36194       162        98     43.74     24.09      1.49     99.99      0.00     12.76     12.57
02/23 04:00      0.01    710.34     36194       156        98     43.32      2.64      1.59     99.99      0.00     12.76     12.57
02/23 05:00      0.00    710.34     36194       151        98     43.18    346.31      1.13     99.99      0.00     12.76     12.57
02/23 06:00      0.01    710.34     36194        59        98     42.96    343.66      1.96     99.99      0.00     12.75     12.57
02/23 07:00      0.00    710.34     36194        45        98     43.14     33.41      4.71     99.99      0.00     12.75     12.57
02/23 08:00      0.16    710.36     36285        31        98     44.20     36.60      3.31     99.99      0.00     12.74     12.57
02/23 09:00      0.02    710.35     36240        17        98     45.73     94.72      2.74     99.99     14.49     12.75     12.57
02/23 10:00      0.00    710.36     36285         3        98     47.88    128.97      6.01     99.99     25.80     12.83     12.57
02/23 11:00      0.00    710.33     36149         0        98     50.54    157.70      8.43    100.00    100.16     13.12     12.65
02/23 12:00      0.00    710.31     36058                  98     56.01    182.00     11.60     86.13    484.34     13.80     13.05
02/23 13:00      0.00    710.18     35466         0        97     60.66    207.92      9.97     54.05    642.33     14.41     13.68
02/23 14:00      0.00    710.25     35784         0        97     60.89    221.73      9.77     38.67    684.55     14.41     14.24
02/23 15:00      0.00    710.17     35420      1012        97     61.00    229.90     10.44     32.89    508.08     13.99     13.13
02/23 16:00      0.00    710.24     35739      1582        97     60.46    233.41     10.36     33.64    297.84     13.78     13.29
02/23 17:00      0.00    710.33     36149      2254        98     59.54    246.37     12.06     37.83    205.04     13.52     13.29
02/23 18:00      0.00    710.38     36377      2268        98     47.05    270.21     21.54     71.90     28.23     13.23     13.21
02/23 19:00      0.00    710.46     36741      2283        98     41.00    284.56     18.49     75.22      0.00     13.17     13.05
02/23 20:00      0.00    710.46     36741      1286        98     37.78    289.31     17.65     74.52      0.00     13.14     12.97
02/23 21:00      0.00    710.46     36741       715        98     37.09    291.75     16.16     74.61      0.00     13.11     12.97
02/23 22:00      0.00    710.46     36741        59        98     36.25    295.52     12.02     75.40      0.00     13.08     12.97
02/23 23:00      0.00    710.44     36650        29        98     36.09    294.97     11.70     75.86      0.00     13.05     12.89